createdAt,value
2023-09-26T00:00:10.575Z,9.49
2023-09-26T00:02:42.943Z,9.34
2023-09-26T00:05:13.033Z,8.87
2023-09-26T00:07:53.876Z,8.65
2023-09-26T00:10:24.016Z,9.07
2023-09-26T00:12:53.933Z,9.41
2023-09-26T00:15:23.721Z,8.93
2023-09-26T00:17:54.446Z,9.21
2023-09-26T00:20:25.456Z,8.95
2023-09-26T00:22:58.555Z,9.06
2023-09-26T00:25:28.536Z,8.78
2023-09-26T00:27:58.377Z,9.15
2023-09-26T00:30:29.375Z,9.17
2023-09-26T00:32:59.199Z,9.11
2023-09-26T00:35:29.044Z,8.86
2023-09-26T00:38:01.486Z,9.24
2023-09-26T00:40:31.800Z,9.34
2023-09-26T00:43:02.415Z,9.16
2023-09-26T00:45:32.390Z,9.66
2023-09-26T00:48:04.662Z,9.11
2023-09-26T00:50:34.642Z,9.63
2023-09-26T00:53:08.218Z,8.95
2023-09-26T00:55:38.913Z,9.34
2023-09-26T00:58:08.704Z,9.88
2023-09-26T01:00:39.834Z,9.70
2023-09-26T01:03:09.911Z,9.88
2023-09-26T01:05:40.233Z,9.84
2023-09-26T01:08:13.091Z,9.43
2023-09-26T01:10:43.477Z,9.52
2023-09-26T01:13:13.458Z,9.68
2023-09-26T01:15:44.944Z,9.65
2023-09-26T01:18:16.449Z,9.68
2023-09-26T01:20:47.228Z,9.52
2023-09-26T01:23:20.320Z,10.03
2023-09-26T01:25:52.656Z,9.72
2023-09-26T01:28:22.554Z,10.02
2023-09-26T01:30:52.341Z,9.67
2023-09-26T01:33:22.773Z,9.66
2023-09-26T01:35:52.968Z,9.21
2023-09-26T01:38:23.311Z,9.74
2023-09-26T01:40:55.697Z,9.85
2023-09-26T01:43:26.408Z,9.99
2023-09-26T01:45:56.296Z,9.60
2023-09-26T01:48:26.172Z,10.21
2023-09-26T01:50:55.928Z,10.22
2023-09-26T01:53:26.391Z,9.93
2023-09-26T01:56:01.690Z,9.65
2023-09-26T01:58:31.836Z,9.96
2023-09-26T02:01:01.711Z,10.15
2023-09-26T02:03:31.474Z,9.76
2023-09-26T02:06:02.272Z,10.27
2023-09-26T02:08:32.120Z,10.47
2023-09-26T02:11:04.470Z,10.44
2023-09-26T02:13:34.302Z,10.23
2023-09-26T02:16:05.265Z,10.28
2023-09-26T02:18:35.188Z,10.51
2023-09-26T02:21:04.935Z,10.84
2023-09-26T02:23:34.725Z,10.66
2023-09-26T02:26:06.986Z,10.36
2023-09-26T02:28:36.672Z,10.44
2023-09-26T02:31:06.575Z,11.07
2023-09-26T02:33:36.361Z,10.73
2023-09-26T02:36:06.273Z,10.90
2023-09-26T02:38:36.006Z,10.88
2023-09-26T02:41:08.299Z,10.54
2023-09-26T02:43:38.224Z,10.46
2023-09-26T02:46:08.645Z,10.41
2023-09-26T02:48:38.401Z,10.22
2023-09-26T02:51:09.195Z,10.33
2023-09-26T02:53:38.889Z,10.21
2023-09-26T02:56:13.465Z,9.99
2023-09-26T02:58:43.916Z,10.19
2023-09-26T03:01:18.320Z,10.09
2023-09-26T03:03:48.612Z,9.97
2023-09-26T03:06:27.090Z,10.01
2023-09-26T03:08:57.821Z,9.76
2023-09-26T03:11:30.387Z,9.99
2023-09-26T03:14:00.921Z,10.74
2023-09-26T03:16:31.100Z,10.52
2023-09-26T03:19:01.399Z,10.56
2023-09-26T03:21:31.562Z,10.18
2023-09-26T03:24:02.421Z,10.27
2023-09-26T03:26:37.552Z,10.06
2023-09-26T03:29:07.670Z,10.30
2023-09-26T03:31:38.260Z,10.26
2023-09-26T03:34:09.555Z,10.04
2023-09-26T03:36:41.183Z,10.06
2023-09-26T03:39:10.915Z,10.61
2023-09-26T03:41:44.900Z,10.62
2023-09-26T03:44:18.125Z,10.63
2023-09-26T03:46:48.248Z,11.01
2023-09-26T03:49:18.262Z,10.34
2023-09-26T03:51:48.577Z,10.24
2023-09-26T03:54:20.040Z,10.34
2023-09-26T03:56:53.917Z,10.50
2023-09-26T03:59:24.157Z,10.38
2023-09-26T04:01:54.323Z,10.39
2023-09-26T04:04:31.042Z,10.86
2023-09-26T04:07:01.688Z,10.95
2023-09-26T04:09:31.734Z,10.79
2023-09-26T04:12:05.136Z,10.63
2023-09-26T04:14:36.036Z,10.68
2023-09-26T04:17:06.480Z,10.36
2023-09-26T04:19:36.417Z,10.09
2023-09-26T04:22:07.592Z,10.22
2023-09-26T04:24:38.454Z,10.56
2023-09-26T04:27:10.919Z,10.45
2023-09-26T04:29:40.700Z,10.02
2023-09-26T04:32:13.012Z,10.49
2023-09-26T04:34:48.653Z,10.31
2023-09-26T04:37:19.573Z,10.06
2023-09-26T04:39:49.754Z,9.74
2023-09-26T04:42:23.809Z,10.13
2023-09-26T04:44:54.014Z,10.35
2023-09-26T04:47:24.016Z,10.45
2023-09-26T04:49:55.830Z,10.24
2023-09-26T04:52:27.611Z,10.21
2023-09-26T04:54:58.199Z,10.11
2023-09-26T04:57:30.555Z,9.77
2023-09-26T05:00:00.328Z,9.64
2023-09-26T05:02:30.314Z,10.15
2023-09-26T05:05:00.243Z,10.24
2023-09-26T05:07:31.299Z,10.26
2023-09-26T05:10:01.864Z,10.00
2023-09-26T05:12:38.523Z,9.97
2023-09-26T05:15:10.530Z,10.15
2023-09-26T05:17:40.300Z,10.21
2023-09-26T05:20:12.098Z,10.21
2023-09-26T05:22:44.235Z,10.19
2023-09-26T05:25:14.817Z,9.80
2023-09-26T05:27:50.063Z,9.98
2023-09-26T05:30:19.774Z,10.06
2023-09-26T05:32:49.585Z,10.15
2023-09-26T05:35:19.384Z,10.24
2023-09-26T05:37:49.194Z,10.81
2023-09-26T05:40:18.994Z,10.84
2023-09-26T05:42:51.603Z,10.88
2023-09-26T05:45:21.475Z,10.76
2023-09-26T05:47:51.232Z,10.48
2023-09-26T05:50:20.951Z,9.71
2023-09-26T05:52:51.528Z,9.92
2023-09-26T05:55:21.301Z,10.08
2023-09-26T05:57:53.618Z,10.17
2023-09-26T06:00:23.948Z,10.06
2023-09-26T06:02:56.009Z,10.19
2023-09-26T06:05:25.952Z,10.33
2023-09-26T06:07:57.082Z,10.27
2023-09-26T06:10:26.861Z,10.28
2023-09-26T06:12:59.725Z,9.75
2023-09-26T06:15:29.476Z,9.43
2023-09-26T06:18:01.164Z,9.83
2023-09-26T06:20:31.798Z,9.15
2023-09-26T06:23:01.907Z,9.22
2023-09-26T06:25:36.703Z,8.69
2023-09-26T06:28:14.880Z,9.19
2023-09-26T06:30:44.670Z,9.25
2023-09-26T06:33:14.554Z,9.05
2023-09-26T06:35:44.404Z,8.89
2023-09-26T06:38:14.177Z,8.58
2023-09-26T06:40:43.890Z,8.37
2023-09-26T06:43:18.141Z,8.47
2023-09-26T06:45:47.919Z,8.60
2023-09-26T06:48:17.975Z,8.09
2023-09-26T06:50:47.786Z,8.37
2023-09-26T06:53:17.576Z,8.15
2023-09-26T06:55:47.318Z,7.86
2023-09-26T06:58:19.733Z,7.67
2023-09-26T07:00:49.495Z,8.27
2023-09-26T07:03:19.792Z,8.27
2023-09-26T07:05:49.617Z,7.70
2023-09-26T07:08:19.416Z,7.98
2023-09-26T07:10:51.289Z,7.91
2023-09-26T07:13:44.441Z,8.07
2023-09-26T07:16:14.045Z,8.50
2023-09-26T07:18:43.869Z,8.30
2023-09-26T07:21:13.967Z,8.48
2023-09-26T07:23:43.829Z,8.45
2023-09-26T07:26:18.333Z,8.47
2023-09-26T07:28:53.968Z,8.28
2023-09-26T07:31:25.694Z,7.80
2023-09-26T07:33:55.915Z,7.99
2023-09-26T07:36:25.893Z,8.01
2023-09-26T07:38:55.609Z,8.15
2023-09-26T07:41:25.341Z,8.03
2023-09-26T07:43:57.661Z,7.65
2023-09-26T07:46:27.579Z,7.91
2023-09-26T07:48:57.619Z,7.88
2023-09-26T07:51:27.895Z,8.11
2023-09-26T07:53:57.610Z,7.74
2023-09-26T07:56:27.275Z,7.98
2023-09-26T07:58:59.622Z,7.80
2023-09-26T08:01:29.428Z,7.83
2023-09-26T08:03:59.742Z,7.87
2023-09-26T08:06:29.581Z,7.39
2023-09-26T08:08:59.286Z,7.93
2023-09-26T08:11:29.464Z,7.50
2023-09-26T08:14:01.965Z,7.87
2023-09-26T08:16:31.688Z,7.66
2023-09-26T08:19:01.473Z,7.94
2023-09-26T08:21:31.384Z,8.20
2023-09-26T08:24:01.202Z,7.75
2023-09-26T08:26:30.914Z,7.47
2023-09-26T08:29:03.184Z,7.48
2023-09-26T08:31:33.106Z,7.48
2023-09-26T08:34:03.018Z,7.90
2023-09-26T08:36:33.619Z,7.63
2023-09-26T08:39:03.342Z,7.83
2023-09-26T08:41:34.831Z,7.53
2023-09-26T08:44:07.486Z,7.89
2023-09-26T08:46:39.132Z,8.31
2023-09-26T08:49:09.371Z,7.79
2023-09-26T08:51:39.405Z,8.11
2023-09-26T08:54:11.487Z,8.47
2023-09-26T08:56:43.523Z,8.27
2023-09-26T08:59:18.093Z,8.29
2023-09-26T09:01:54.209Z,8.49
2023-09-26T09:04:24.561Z,8.56
2023-09-26T09:07:04.159Z,8.24
2023-09-26T09:09:34.121Z,8.07
2023-09-26T09:12:04.016Z,8.07
2023-09-26T09:14:39.715Z,7.72
2023-09-26T09:17:09.469Z,7.39
2023-09-26T09:19:50.191Z,7.08
2023-09-26T09:22:21.416Z,7.17
2023-09-26T09:24:56.965Z,7.37
2023-09-26T09:27:34.188Z,7.36
2023-09-26T09:30:13.418Z,7.91
2023-09-26T09:32:44.760Z,7.78
2023-09-26T09:35:14.814Z,7.50
2023-09-26T09:37:44.773Z,7.42
2023-09-26T09:40:15.019Z,8.11
2023-09-26T09:42:46.023Z,8.78
2023-09-26T09:45:18.637Z,8.28
2023-09-26T09:48:00.318Z,8.69
2023-09-26T09:50:31.996Z,8.52
2023-09-26T09:53:05.347Z,8.75
2023-09-26T09:55:40.201Z,8.86
2023-09-26T09:58:13.144Z,8.87
2023-09-26T10:00:47.734Z,8.82
2023-09-26T10:03:20.191Z,9.00
2023-09-26T10:05:52.666Z,8.72
2023-09-26T10:08:24.159Z,8.94
2023-09-26T10:10:54.004Z,9.06
2023-09-26T10:16:15.212Z,9.18
2023-09-26T10:18:49.563Z,9.25
2023-09-26T10:21:23.220Z,9.18
2023-09-26T10:24:08.036Z,8.75
2023-09-26T10:26:42.201Z,8.33
2023-09-26T10:29:15.511Z,8.97
2023-09-26T10:31:54.879Z,8.33
2023-09-26T10:37:22.953Z,8.54
2023-09-26T10:39:52.939Z,8.94
2023-09-26T10:44:56.652Z,9.00
2023-09-26T10:47:28.989Z,8.35
2023-09-26T10:50:01.999Z,8.57
2023-09-26T10:58:13.870Z,8.15
2023-09-26T11:00:52.436Z,8.34
2023-09-26T11:03:25.005Z,7.57
2023-09-26T11:05:55.057Z,7.67
2023-09-26T11:08:25.672Z,7.89
2023-09-26T11:10:55.568Z,7.67
2023-09-26T11:13:26.639Z,7.41
2023-09-26T11:15:56.481Z,7.68
2023-09-26T11:18:29.518Z,8.23
2023-09-26T11:21:03.120Z,7.54
2023-09-26T11:23:40.295Z,8.19
2023-09-26T11:26:10.589Z,7.50
2023-09-26T11:28:40.461Z,7.81
2023-09-26T11:31:10.520Z,7.46
2023-09-26T11:33:43.230Z,7.41
2023-09-26T11:36:14.016Z,6.99
2023-09-26T11:38:50.737Z,7.36
2023-09-26T11:41:29.186Z,6.37
2023-09-26T11:44:12.054Z,6.24
2023-09-26T11:46:42.970Z,5.91
2023-09-26T11:49:15.497Z,4.12
2023-09-26T11:51:46.036Z,3.76
2023-09-26T11:54:17.572Z,3.92
2023-09-26T11:56:48.296Z,3.89
2023-09-26T11:59:18.366Z,4.20
2023-09-26T12:02:01.912Z,4.69
2023-09-26T12:04:35.666Z,6.00
2023-09-26T12:07:06.968Z,3.98
2023-09-26T12:09:37.270Z,4.05
2023-09-26T12:12:27.138Z,4.29
2023-09-26T12:15:17.108Z,4.25
2023-09-26T12:17:47.288Z,4.41
2023-09-26T12:20:28.747Z,4.20
2023-09-26T12:22:59.816Z,4.08
2023-09-26T12:25:31.703Z,4.12
2023-09-26T12:28:03.738Z,3.91
2023-09-26T12:30:34.572Z,4.03
2023-09-26T12:33:04.275Z,4.13
2023-09-26T12:35:36.844Z,4.10
2023-09-26T12:38:06.730Z,3.75
2023-09-26T12:40:36.591Z,3.62
2023-09-26T12:43:06.662Z,3.32
2023-09-26T12:45:36.375Z,3.37
2023-09-26T12:48:06.728Z,3.58
2023-09-26T12:50:39.861Z,3.48
2023-09-26T12:53:09.716Z,3.49
2023-09-26T12:55:39.454Z,3.71
2023-09-26T12:58:09.160Z,3.84
2023-09-26T13:00:39.015Z,4.11
2023-09-26T13:03:09.061Z,3.95
2023-09-26T13:05:42.418Z,4.39
2023-09-26T13:08:12.264Z,4.52
2023-09-26T13:10:43.232Z,4.21
2023-09-26T13:13:12.983Z,3.89
2023-09-26T13:15:43.889Z,4.07
2023-09-26T13:18:13.913Z,4.11
2023-09-26T13:20:46.260Z,3.95
2023-09-26T13:23:16.128Z,4.35
2023-09-26T13:25:48.861Z,4.06
2023-09-26T13:28:19.787Z,3.75
2023-09-26T13:30:49.455Z,3.63
2023-09-26T13:33:19.648Z,3.76
2023-09-26T13:35:52.043Z,3.75
2023-09-26T13:38:21.798Z,3.92
2023-09-26T13:40:51.568Z,4.08
2023-09-26T13:43:21.280Z,4.55
2023-09-26T13:45:51.013Z,4.36
2023-09-26T13:48:20.858Z,4.10
2023-09-26T13:50:53.397Z,3.65
2023-09-26T13:53:23.183Z,3.78
2023-09-26T13:55:52.962Z,4.06
2023-09-26T13:58:22.781Z,3.98
2023-09-26T14:00:52.614Z,3.46
2023-09-26T14:03:22.399Z,3.50
2023-09-26T14:05:54.959Z,3.22
2023-09-26T14:08:24.853Z,3.63
2023-09-26T14:10:54.633Z,3.43
2023-09-26T14:13:26.209Z,3.36
2023-09-26T14:15:56.343Z,3.65
2023-09-26T14:18:26.105Z,3.78
2023-09-26T14:21:00.373Z,3.65
2023-09-26T14:23:30.313Z,3.61
2023-09-26T14:26:00.270Z,3.59
2023-09-26T14:28:30.050Z,3.52
2023-09-26T14:31:00.026Z,3.57
2023-09-26T14:33:29.973Z,3.69
2023-09-26T14:36:02.428Z,3.70
2023-09-26T14:38:32.173Z,3.90
2023-09-26T14:41:01.973Z,3.89
2023-09-26T14:43:31.729Z,3.81
2023-09-26T14:46:01.509Z,3.52
2023-09-26T14:48:31.283Z,3.92
2023-09-26T14:51:03.585Z,3.68
2023-09-26T14:53:33.528Z,3.71
2023-09-26T14:56:03.328Z,3.66
2023-09-26T14:58:33.188Z,3.87
2023-09-26T15:01:03.803Z,3.64
2023-09-26T15:06:08.787Z,3.91
2023-09-26T15:08:38.541Z,4.03
2023-09-26T15:11:08.337Z,3.85
2023-09-26T15:13:38.281Z,3.39
2023-09-26T15:16:08.964Z,4.04
2023-09-26T15:18:38.938Z,3.93
2023-09-26T15:21:11.230Z,4.18
2023-09-26T15:23:40.927Z,4.16
2023-09-26T15:26:10.754Z,4.23
2023-09-26T15:28:40.590Z,4.05
2023-09-26T15:31:11.591Z,4.04
2023-09-26T15:33:41.426Z,4.13
2023-09-26T15:36:18.306Z,4.27
2023-09-26T15:38:48.060Z,3.84
2023-09-26T15:41:19.246Z,4.14
2023-09-26T15:43:50.443Z,4.44
2023-09-26T15:46:21.259Z,4.57
2023-09-26T15:48:51.597Z,4.76
2023-09-26T15:51:24.157Z,4.33
2023-09-26T15:53:54.017Z,4.08
2023-09-26T15:56:24.007Z,4.00
2023-09-26T15:58:54.769Z,3.70
2023-09-26T16:01:24.654Z,3.88
2023-09-26T16:03:54.724Z,3.82
2023-09-26T16:06:29.149Z,3.92
2023-09-26T16:09:00.180Z,3.87
2023-09-26T16:11:29.888Z,3.98
2023-09-26T16:13:59.702Z,4.19
2023-09-26T16:16:29.580Z,4.18
2023-09-26T16:18:59.454Z,4.06
2023-09-26T16:21:31.761Z,4.37
2023-09-26T16:24:01.776Z,4.28
2023-09-26T16:26:31.616Z,4.80
2023-09-26T16:29:02.852Z,4.60
2023-09-26T16:31:32.994Z,4.95
2023-09-26T16:34:02.988Z,4.82
2023-09-26T16:36:35.370Z,4.48
2023-09-26T16:39:05.457Z,4.96
2023-09-26T16:41:35.429Z,4.70
2023-09-26T16:44:05.199Z,4.86
2023-09-26T16:46:35.119Z,4.95
2023-09-26T16:49:04.929Z,5.32
2023-09-26T16:51:37.412Z,5.53
2023-09-26T16:54:07.379Z,6.39
2023-09-26T16:56:37.433Z,6.11
2023-09-26T16:59:07.302Z,5.97
2023-09-26T17:01:37.393Z,5.25
2023-09-26T17:04:07.456Z,5.34
2023-09-26T17:06:40.815Z,5.53
2023-09-26T17:09:10.601Z,5.27
2023-09-26T17:11:40.350Z,5.61
2023-09-26T17:14:10.654Z,5.27
2023-09-26T17:16:40.576Z,5.27
2023-09-26T17:19:10.389Z,5.74
2023-09-26T17:21:42.805Z,5.79
2023-09-26T17:24:12.675Z,5.57
2023-09-26T17:26:43.202Z,5.51
2023-09-26T17:29:13.842Z,5.48
2023-09-26T17:31:44.738Z,5.52
2023-09-26T17:34:14.576Z,5.73
2023-09-26T17:36:46.927Z,5.94
2023-09-26T17:39:16.608Z,5.65
2023-09-26T17:41:48.320Z,5.32
2023-09-26T17:44:18.120Z,5.56
2023-09-26T17:46:50.762Z,5.28
2023-09-26T17:49:23.656Z,5.30
2023-09-26T17:51:55.977Z,5.49
2023-09-26T17:54:25.710Z,5.40
2023-09-26T17:56:55.511Z,5.36
2023-09-26T17:59:25.416Z,5.65
2023-09-26T18:01:55.219Z,6.23
2023-09-26T18:04:25.055Z,6.30
2023-09-26T18:06:57.280Z,5.99
2023-09-26T18:09:27.067Z,6.26
2023-09-26T18:11:56.870Z,7.01
2023-09-26T18:14:26.592Z,6.67
2023-09-26T18:16:56.321Z,6.43
2023-09-26T18:19:26.102Z,6.95
2023-09-26T18:21:58.422Z,7.06
2023-09-26T18:24:28.096Z,7.31
2023-09-26T18:26:57.954Z,7.55
2023-09-26T18:29:27.797Z,6.87
2023-09-26T18:31:57.898Z,7.24
2023-09-26T18:34:27.789Z,7.18
2023-09-26T18:37:00.249Z,6.90
2023-09-26T18:39:31.431Z,6.88
2023-09-26T18:42:01.114Z,7.38
2023-09-26T18:44:30.812Z,6.89
2023-09-26T18:47:00.602Z,7.61
2023-09-26T18:49:30.668Z,7.55
2023-09-26T18:52:03.040Z,7.45
2023-09-26T18:54:32.782Z,7.45
2023-09-26T18:57:03.847Z,7.89
2023-09-26T18:59:37.383Z,8.69
2023-09-26T19:02:07.566Z,8.54
2023-09-26T19:04:37.674Z,8.79
2023-09-26T19:07:10.162Z,8.72
2023-09-26T19:09:40.009Z,8.68
2023-09-26T19:12:09.956Z,8.47
2023-09-26T19:14:39.787Z,8.01
2023-09-26T19:17:09.568Z,8.50
2023-09-26T19:19:39.304Z,8.53
2023-09-26T19:22:12.501Z,8.41
2023-09-26T19:24:42.228Z,9.05
2023-09-26T19:27:11.885Z,8.40
2023-09-26T19:29:42.434Z,8.70
2023-09-26T19:32:13.210Z,8.60
2023-09-26T19:34:43.697Z,9.18
2023-09-26T19:37:17.597Z,9.13
2023-09-26T19:39:47.328Z,9.18
2023-09-26T19:42:17.346Z,9.59
2023-09-26T19:44:49.417Z,9.97
2023-09-26T19:47:19.450Z,9.51
2023-09-26T19:49:49.278Z,8.85
2023-09-26T19:52:21.665Z,8.40
2023-09-26T19:54:51.517Z,8.41
2023-09-26T19:57:21.375Z,7.83
2023-09-26T19:59:52.549Z,8.23
2023-09-26T20:02:22.380Z,8.81
2023-09-26T20:04:52.201Z,8.84
2023-09-26T20:07:24.560Z,9.09
2023-09-26T20:09:54.288Z,9.57
2023-09-26T20:12:24.572Z,11.15
2023-09-26T20:14:54.358Z,11.58
2023-09-26T20:17:24.098Z,11.78
2023-09-26T20:19:53.955Z,10.96
2023-09-26T20:22:26.287Z,9.56
2023-09-26T20:24:56.041Z,8.28
2023-09-26T20:27:26.263Z,8.55
2023-09-26T20:29:56.002Z,8.58
2023-09-26T20:32:25.871Z,8.39
2023-09-26T20:34:55.651Z,8.56
2023-09-26T20:37:28.031Z,8.92
2023-09-26T20:39:58.137Z,9.26
2023-09-26T20:42:27.870Z,8.95
2023-09-26T20:44:57.936Z,9.56
2023-09-26T20:47:27.716Z,9.56
2023-09-26T20:49:57.513Z,10.07
2023-09-26T20:52:30.078Z,9.84
2023-09-26T20:55:00.086Z,9.93
2023-09-26T20:57:29.824Z,9.26
2023-09-26T20:59:59.633Z,8.99
2023-09-26T21:02:29.451Z,9.18
2023-09-26T21:04:59.288Z,8.79
2023-09-26T21:07:31.859Z,8.99
2023-09-26T21:10:01.684Z,9.10
2023-09-26T21:12:31.492Z,9.77
2023-09-26T21:15:01.340Z,9.07
2023-09-26T21:17:31.145Z,9.22
2023-09-26T21:20:00.973Z,9.34
2023-09-26T21:22:33.294Z,9.29
2023-09-26T21:25:03.353Z,9.44
2023-09-26T21:27:33.469Z,9.66
2023-09-26T21:30:04.837Z,9.81
2023-09-26T21:32:35.972Z,9.80
2023-09-26T21:35:06.239Z,10.48
2023-09-26T21:37:38.705Z,10.70
2023-09-26T21:40:10.134Z,10.27
2023-09-26T21:42:39.874Z,9.50
2023-09-26T21:45:10.317Z,10.46
2023-09-26T21:47:40.208Z,10.18
2023-09-26T21:50:10.299Z,9.87
2023-09-26T21:52:42.618Z,9.91
2023-09-26T21:55:12.772Z,10.04
2023-09-26T21:57:42.479Z,9.76
2023-09-26T22:00:23.033Z,10.20
2023-09-26T22:02:52.963Z,10.40
2023-09-26T22:05:23.455Z,10.19
2023-09-26T22:07:57.622Z,10.37
2023-09-26T22:10:27.524Z,10.48
2023-09-26T22:12:57.354Z,9.88
2023-09-26T22:15:27.864Z,9.84
2023-09-26T22:17:58.704Z,9.80
2023-09-26T22:20:34.025Z,9.86
2023-09-26T22:23:07.123Z,9.76
2023-09-26T22:25:36.909Z,9.98
2023-09-26T22:28:06.764Z,10.66
2023-09-26T22:30:37.201Z,10.08
2023-09-26T22:33:07.110Z,9.76
2023-09-26T22:35:36.931Z,10.26
2023-09-26T22:38:09.413Z,10.44
2023-09-26T22:40:48.764Z,10.56
2023-09-26T22:43:22.031Z,10.94
2023-09-26T22:45:51.808Z,11.36
2023-09-26T22:48:21.996Z,11.56
2023-09-26T22:50:51.826Z,11.09
2023-09-26T22:53:24.156Z,11.59
2023-09-26T22:55:53.990Z,12.94
2023-09-26T22:58:23.726Z,13.38
2023-09-26T23:00:53.458Z,12.34
2023-09-26T23:03:23.467Z,12.02
2023-09-26T23:05:53.887Z,12.73
2023-09-26T23:08:26.280Z,12.04
2023-09-26T23:10:56.073Z,12.58
2023-09-26T23:13:25.958Z,12.95
2023-09-26T23:15:57.270Z,13.02
2023-09-26T23:18:27.037Z,13.51
2023-09-26T23:20:56.803Z,13.02
2023-09-26T23:23:29.071Z,13.20
2023-09-26T23:25:59.350Z,13.52
2023-09-26T23:28:29.062Z,13.99
2023-09-26T23:31:01.436Z,13.72
2023-09-26T23:33:32.737Z,13.50
2023-09-26T23:36:02.612Z,13.49
2023-09-26T23:38:34.973Z,13.20
2023-09-26T23:41:04.786Z,13.10
2023-09-26T23:43:34.737Z,12.34
2023-09-26T23:46:04.971Z,12.54
2023-09-26T23:48:34.802Z,12.66
2023-09-26T23:51:08.203Z,13.20
2023-09-26T23:53:40.734Z,12.54
2023-09-26T23:56:10.576Z,12.68
2023-09-26T23:58:40.360Z,12.84
